Time;durP1;ratioP1;P1;durP2;ratioP2;P2;SDS_P1;SDS_P2;PMS_P1;PMS_P2;Temp;Humidity;BMP_temperature;BMP_pressure;BME280_temperature;BME280_humidity;BME280_pressure;Samples;Min_cycle;Max_cycle;Signal;HPM_P1;HPM_P2
2023/01/28 00:01:27;;;;;;;8.65;3.90;;;;;;;1.91;68.55;100647.16;5023700;28;20041;-72
2023/01/28 00:03:52;;;;;;;7.00;3.45;;;;;;;1.97;68.11;100641.66;5023395;28;20051;-72
2023/01/28 00:06:18;;;;;;;5.07;2.70;;;;;;;2.18;65.31;100649.09;5024930;28;20029;-71
2023/01/28 00:08:44;;;;;;;4.78;2.88;;;;;;;2.31;64.23;100644.94;5022850;28;20124;-72
2023/01/28 00:11:11;;;;;;;4.57;2.20;;;;;;;2.32;64.27;100642.28;5024972;28;20034;-71
2023/01/28 00:13:38;;;;;;;4.65;2.35;;;;;;;2.29;64.44;100636.47;5021436;28;20120;-72
2023/01/28 00:16:07;;;;;;;6.18;2.65;;;;;;;2.17;65.77;100639.72;5026271;28;20029;-72
2023/01/28 00:18:33;;;;;;;5.80;2.80;;;;;;;2.01;67.06;100650.03;5023512;28;20039;-72
2023/01/28 00:21:05;;;;;;;5.80;3.30;;;;;;;1.90;67.25;100644.66;5023576;28;20084;-71
2023/01/28 00:23:32;;;;;;;5.68;2.70;;;;;;;1.81;67.69;100658.03;5024600;28;20099;-72
2023/01/28 00:25:59;;;;;;;8.20;3.08;;;;;;;1.70;69.35;100644.94;5023759;28;20033;-72
2023/01/28 00:28:24;;;;;;;6.75;3.53;;;;;;;1.58;69.45;100657.53;5023317;28;20033;-72
2023/01/28 00:30:50;;;;;;;6.78;3.67;;;;;;;1.47;69.56;100654.72;5023456;28;20098;-72
2023/01/28 00:33:15;;;;;;;6.90;3.50;;;;;;;1.41;70.33;100642.22;5023183;28;20099;-72
2023/01/28 00:35:41;;;;;;;7.68;3.55;;;;;;;1.27;70.98;100647.25;5022359;28;20033;-71
2023/01/28 00:38:07;;;;;;;6.90;3.53;;;;;;;1.21;71.49;100650.13;5027050;28;20047;-72
2023/01/28 00:40:33;;;;;;;6.10;3.17;;;;;;;1.18;71.25;100635.72;5030725;28;20026;-72
2023/01/28 00:42:58;;;;;;;6.53;3.08;;;;;;;1.15;71.51;100645.31;5025626;28;20040;-71
2023/01/28 00:45:24;;;;;;;5.45;3.10;;;;;;;1.12;71.09;100645.47;5023661;28;20143;-72
2023/01/28 00:47:49;;;;;;;6.75;3.47;;;;;;;1.09;71.31;100640.50;5021123;28;20479;-72
2023/01/28 00:50:15;;;;;;;5.82;3.22;;;;;;;1.05;70.86;100651.84;5023832;28;20079;-72
2023/01/28 00:52:40;;;;;;;4.97;3.03;;;;;;;0.87;72.11;100646.78;5020002;28;20047;-72
2023/01/28 00:55:06;;;;;;;4.88;2.95;;;;;;;0.78;72.19;100646.41;5024128;28;20040;-72
2023/01/28 00:57:32;;;;;;;6.90;3.45;;;;;;;0.73;72.40;100654.31;5023509;28;20041;-72
2023/01/28 00:59:58;;;;;;;6.32;3.47;;;;;;;0.68;73.13;100650.34;5023752;28;20491;-72
2023/01/28 01:02:24;;;;;;;7.00;4.00;;;;;;;0.66;73.53;100655.53;5022022;28;20029;-71
2023/01/28 01:04:59;;;;;;;4.90;3.03;;;;;;;0.63;73.15;100660.81;5033359;28;20036;-72
2023/01/28 01:07:42;;;;;;;7.03;3.85;;;;;;;0.62;73.76;100657.41;5028733;28;20040;-72
2023/01/28 01:10:13;;;;;;;6.50;4.78;;;;;;;0.62;74.10;100667.69;5033870;28;20026;-72
2023/01/28 01:12:40;;;;;;;7.97;3.85;;;;;;;0.48;74.96;100664.13;5028400;28;20088;-72
2023/01/28 01:15:09;;;;;;;8.38;4.60;;;;;;;0.38;74.82;100671.47;5023465;28;20034;-72
2023/01/28 01:17:40;;;;;;;6.88;3.53;;;;;;;0.35;75.15;100678.47;5021255;28;20488;-72
2023/01/28 01:20:11;;;;;;;6.53;3.20;;;;;;;0.37;74.37;100679.22;5022109;28;20060;-72
2023/01/28 01:22:38;;;;;;;8.30;3.70;;;;;;;0.37;74.84;100681.78;5025645;28;20038;-71
2023/01/28 01:25:04;;;;;;;5.78;2.90;;;;;;;0.38;74.64;100683.47;5026383;28;20477;-72
2023/01/28 01:27:30;;;;;;;8.48;4.40;;;;;;;0.35;76.46;100697.25;5024085;28;20496;-72
2023/01/28 01:29:57;;;;;;;8.18;4.03;;;;;;;0.36;75.56;100696.34;5034513;28;20448;-72
2023/01/28 01:32:23;;;;;;;8.00;3.83;;;;;;;0.27;75.77;100701.91;5024609;28;20132;-72
2023/01/28 01:34:49;;;;;;;8.93;4.63;;;;;;;0.21;76.62;100704.75;5026885;28;20029;-72
2023/01/28 01:37:14;;;;;;;7.75;4.25;;;;;;;0.16;76.65;100710.09;5028132;28;21766;-72
2023/01/28 01:39:40;;;;;;;11.48;4.55;;;;;;;0.15;76.69;100708.44;5031670;28;20067;-72
2023/01/28 01:42:08;;;;;;;9.05;5.00;;;;;;;0.15;77.35;100722.97;5027926;28;20128;-72
2023/01/28 01:44:56;;;;;;;8.52;4.32;;;;;;;0.05;77.48;100720.00;5032080;28;20037;-72
2023/01/28 01:47:26;;;;;;;9.20;4.55;;;;;;;0.01;77.45;100731.31;5029254;28;20033;-71
2023/01/28 01:49:52;;;;;;;7.75;3.90;;;;;;;-0.08;78.01;100730.03;5029432;28;20511;-72
2023/01/28 01:52:23;;;;;;;9.77;4.43;;;;;;;-0.16;78.66;100731.28;5028972;28;20044;-72
2023/01/28 01:54:53;;;;;;;7.30;3.50;;;;;;;-0.27;79.19;100729.19;5034074;28;20119;-72
2023/01/28 01:57:25;;;;;;;8.27;3.85;;;;;;;-0.37;79.68;100731.31;5026653;28;20029;-72
2023/01/28 01:59:52;;;;;;;8.82;4.35;;;;;;;-0.44;79.99;100729.94;5035094;28;20120;-72
2023/01/28 02:02:17;;;;;;;9.73;4.78;;;;;;;-0.50;80.51;100735.34;5028554;28;20088;-71
2023/01/28 02:04:44;;;;;;;8.60;5.00;;;;;;;-0.53;81.05;100732.09;5034798;28;20057;-71
2023/01/28 02:07:15;;;;;;;10.32;4.65;;;;;;;-0.59;81.38;100732.38;5035540;28;20494;-72
2023/01/28 02:09:41;;;;;;;9.02;4.70;;;;;;;-0.63;82.05;100734.22;5030361;28;20084;-72
2023/01/28 02:12:15;;;;;;;8.18;4.10;;;;;;;-0.64;81.97;100741.97;5027909;28;20037;-72
2023/01/28 02:14:46;;;;;;;8.77;4.78;;;;;;;-0.70;82.69;100730.28;5030992;28;20082;-72
2023/01/28 02:17:12;;;;;;;8.27;4.03;;;;;;;-0.73;83.27;100730.41;5030018;28;20040;-72
2023/01/28 02:19:53;;;;;;;10.82;4.85;;;;;;;-0.80;84.27;100727.28;5033341;28;20037;-72
2023/01/28 02:22:31;;;;;;;7.85;4.53;;;;;;;-0.89;84.84;100735.34;5029466;28;20037;-70
2023/01/28 02:25:07;;;;;;;7.15;3.60;;;;;;;-0.97;85.83;100739.13;5019376;28;20026;-71
2023/01/28 02:28:13;;;;;;;9.55;4.53;;;;;;;-0.98;85.41;100732.38;5021291;28;20156;-71
2023/01/28 02:30:43;;;;;;;7.72;3.42;;;;;;;-0.98;84.83;100728.06;5021013;28;20045;-72
2023/01/28 02:33:22;;;;;;;15.68;4.22;;;;;;;-0.96;85.49;100738.25;5020870;28;20037;-72
2023/01/28 02:35:52;;;;;;;8.27;4.47;;;;;;;-0.98;85.62;100729.81;5018876;28;20037;-72
2023/01/28 02:38:22;;;;;;;10.90;4.88;;;;;;;-0.98;86.59;100737.47;5020673;28;20025;-72
2023/01/28 02:41:02;;;;;;;6.30;3.78;;;;;;;-0.99;86.72;100730.69;5019526;28;20380;-72
2023/01/28 02:43:42;;;;;;;8.55;4.20;;;;;;;-1.01;87.28;100733.31;5022333;28;20839;-72
2023/01/28 02:49:18;;;;;;;7.38;4.13;;;;;;;-1.04;87.08;100746.25;5023809;28;20048;-72
2023/01/28 02:51:58;;;;;;;8.32;4.35;;;;;;;-1.16;88.65;100734.78;5022446;28;20041;-72
2023/01/28 02:54:45;;;;;;;9.60;5.30;;;;;;;-1.17;88.17;100742.53;5031905;28;20116;-72
2023/01/28 02:57:31;;;;;;;10.93;4.93;;;;;;;-1.20;90.09;100748.59;5021789;28;20029;-72
2023/01/28 03:00:13;;;;;;;10.20;4.88;;;;;;;-1.18;90.69;100748.53;5018616;28;20091;-72
2023/01/28 03:02:49;;;;;;;9.07;4.60;;;;;;;-1.14;88.98;100748.34;5021885;28;20041;-72
2023/01/28 03:05:23;;;;;;;10.55;5.10;;;;;;;-1.19;88.42;100760.47;5033271;28;20057;-72
2023/01/28 03:07:50;;;;;;;11.00;5.15;;;;;;;-1.23;88.71;100753.81;5030411;28;20538;-72
2023/01/28 03:10:19;;;;;;;9.35;4.75;;;;;;;-1.24;89.14;100761.56;5028899;28;20039;-72
2023/01/28 03:38:41;;;;;;;8.50;4.55;;;;;;;-1.62;91.46;100776.72;5021499;28;20377;-71
2023/01/28 03:41:08;;;;;;;7.90;3.90;;;;;;;-1.46;90.77;100787.16;5020165;28;20626;-71
2023/01/28 03:43:34;;;;;;;11.05;4.20;;;;;;;-1.48;90.63;100783.84;5018725;28;20503;-71
2023/01/28 03:45:59;;;;;;;7.82;3.92;;;;;;;-1.50;91.79;100786.47;5022029;28;20041;-72
2023/01/28 03:48:27;;;;;;;8.70;4.03;;;;;;;-1.49;91.31;100789.84;5020494;28;20183;-72
2023/01/28 03:50:55;;;;;;;6.80;3.70;;;;;;;-1.55;91.71;100779.84;5019480;28;20029;-72
2023/01/28 03:53:20;;;;;;;8.40;4.20;;;;;;;-1.67;92.15;100778.59;5018682;28;20033;-72
2023/01/28 03:55:48;;;;;;;9.20;3.78;;;;;;;-1.67;92.08;100778.59;5017500;28;20487;-71
2023/01/28 03:58:14;;;;;;;7.25;4.10;;;;;;;-1.66;92.76;100785.38;5018389;28;20031;-71
2023/01/28 04:00:42;;;;;;;8.98;4.63;;;;;;;-1.70;92.74;100794.06;5020363;28;20029;-72
2023/01/28 04:03:18;;;;;;;7.22;3.70;;;;;;;-1.65;93.42;100792.16;5018881;28;20037;-72
2023/01/28 04:05:56;;;;;;;12.63;4.93;;;;;;;-1.71;93.73;100793.22;5028374;28;20385;-72
2023/01/28 04:08:22;;;;;;;9.38;4.18;;;;;;;-1.64;92.63;100792.97;5019418;28;20056;-71
2023/01/28 04:10:48;;;;;;;10.65;5.00;;;;;;;-1.68;93.00;100793.09;5021247;28;20064;-71
2023/01/28 04:13:13;;;;;;;9.55;4.13;;;;;;;-1.63;92.77;100799.75;5018070;28;20068;-71
2023/01/28 04:15:39;;;;;;;8.70;3.80;;;;;;;-1.64;92.54;100798.94;5020455;28;20037;-71
2023/01/28 04:18:04;;;;;;;7.25;3.78;;;;;;;-1.66;93.14;100795.59;5022724;28;20063;-71
2023/01/28 04:20:30;;;;;;;8.77;3.85;;;;;;;-1.72;93.00;100789.00;5020655;28;20045;-71
2023/01/28 04:22:55;;;;;;;9.57;4.10;;;;;;;-1.78;94.56;100803.72;5015633;28;20034;-71
2023/01/28 04:25:21;;;;;;;10.63;5.28;;;;;;;-1.82;95.24;100800.44;5019517;28;20040;-71
2023/01/28 04:27:46;;;;;;;9.68;4.35;;;;;;;-1.80;95.05;100795.28;5020861;28;20609;-71
2023/01/28 04:30:12;;;;;;;9.45;4.38;;;;;;;-1.78;95.47;100793.50;5022727;28;20037;-71
2023/01/28 04:32:37;;;;;;;8.82;4.30;;;;;;;-1.72;94.96;100806.06;5023717;28;20029;-71
2023/01/28 04:35:03;;;;;;;11.63;4.93;;;;;;;-1.84;96.05;100809.88;5028862;28;20045;-71
2023/01/28 04:37:28;;;;;;;8.55;4.88;;;;;;;-1.90;95.92;100812.72;5038641;28;20033;-71
2023/01/28 04:39:53;;;;;;;11.63;5.93;;;;;;;-1.92;96.43;100803.44;5036686;28;20125;-71
2023/01/28 04:42:19;;;;;;;9.25;5.50;;;;;;;-1.88;95.72;100805.78;5027576;28;20481;-71
2023/01/28 04:44:44;;;;;;;8.48;5.75;;;;;;;-1.88;94.94;100808.34;5019321;28;20034;-71
2023/01/28 04:47:09;;;;;;;11.30;6.18;;;;;;;-1.90;95.78;100820.38;5021358;28;20497;-71
2023/01/28 04:49:35;;;;;;;12.20;6.10;;;;;;;-1.94;95.13;100816.25;5018477;28;20044;-72
2023/01/28 04:52:00;;;;;;;9.57;5.15;;;;;;;-1.96;95.43;100822.31;5018494;28;20067;-71
2023/01/28 04:54:26;;;;;;;11.73;5.80;;;;;;;-1.98;97.38;100818.97;5028115;28;20144;-71
2023/01/28 04:56:51;;;;;;;8.52;4.78;;;;;;;-1.90;97.09;100822.09;5029964;28;20025;-71
2023/01/28 04:59:17;;;;;;;10.13;5.60;;;;;;;-1.97;97.67;100830.84;5037434;28;20033;-72
2023/01/28 05:01:42;;;;;;;12.90;6.10;;;;;;;-1.99;98.55;100832.63;5034315;28;20041;-72
2023/01/28 05:04:08;;;;;;;10.80;4.85;;;;;;;-2.00;99.10;100829.25;5030853;28;20022;-71
2023/01/28 05:06:34;;;;;;;10.80;5.40;;;;;;;-1.96;97.67;100838.47;5027592;28;20037;-71
2023/01/28 05:08:59;;;;;;;11.93;6.20;;;;;;;-1.97;98.16;100844.47;5020982;28;20044;-72
2023/01/28 05:11:25;;;;;;;10.95;4.75;;;;;;;-1.95;97.80;100847.78;5019525;28;20033;-71
2023/01/28 05:13:51;;;;;;;15.07;5.70;;;;;;;-1.97;98.25;100851.28;5030144;28;20502;-71
2023/01/28 05:16:16;;;;;;;12.65;5.32;;;;;;;-1.96;98.14;100843.56;5018298;28;20021;-71
2023/01/28 05:18:42;;;;;;;12.98;5.75;;;;;;;-1.96;97.89;100848.69;5016525;28;20047;-71
2023/01/28 05:21:08;;;;;;;9.73;4.80;;;;;;;-2.03;97.62;100849.78;5021670;28;21970;-72
2023/01/28 05:23:33;;;;;;;11.88;5.47;;;;;;;-2.08;97.42;100852.50;5021195;28;20092;-71
2023/01/28 05:25:59;;;;;;;11.07;5.50;;;;;;;-2.14;98.23;100850.16;5020896;28;20029;-71
2023/01/28 05:28:24;;;;;;;10.38;4.75;;;;;;;-2.13;99.36;100838.22;5018064;28;20071;-71
2023/01/28 05:30:50;;;;;;;12.15;5.68;;;;;;;-2.12;99.02;100853.50;5015757;28;20038;-72
2023/01/28 05:33:15;;;;;;;7.10;4.75;;;;;;;-2.22;99.53;100853.88;5024303;28;20157;-71
2023/01/28 05:35:41;;;;;;;8.50;4.95;;;;;;;-2.14;99.35;100852.72;5020928;28;20037;-71
2023/01/28 05:38:07;;;;;;;9.65;5.07;;;;;;;-2.06;98.92;100860.09;5023910;28;20040;-71
2023/01/28 05:40:32;;;;;;;10.18;5.22;;;;;;;-2.03;98.91;100842.13;5016733;28;20029;-71
2023/01/28 05:42:58;;;;;;;10.30;5.57;;;;;;;-2.00;98.98;100857.34;5026567;28;20396;-71
2023/01/28 05:45:23;;;;;;;10.07;5.25;;;;;;;-1.96;98.06;100869.09;5019709;28;20044;-71
2023/01/28 05:47:49;;;;;;;9.55;4.32;;;;;;;-1.99;97.50;100864.13;5020297;28;20037;-71
2023/01/28 05:50:15;;;;;;;12.20;5.30;;;;;;;-2.12;98.94;100865.44;5022840;28;20422;-71
2023/01/28 05:52:40;;;;;;;10.65;4.93;;;;;;;-2.04;98.94;100864.28;5022963;28;20041;-72
2023/01/28 05:55:06;;;;;;;9.65;5.05;;;;;;;-1.89;98.59;100867.97;5022948;28;20040;-71
2023/01/28 05:57:32;;;;;;;10.13;5.93;;;;;;;-1.88;97.74;100872.19;5022806;28;20477;-71
2023/01/28 05:59:57;;;;;;;13.15;6.05;;;;;;;-1.85;98.42;100876.34;5022426;28;20053;-71
2023/01/28 06:02:23;;;;;;;12.77;6.38;;;;;;;-1.91;98.85;100886.81;5019852;28;20118;-71
2023/01/28 06:04:48;;;;;;;13.52;6.75;;;;;;;-1.91;98.24;100882.53;5025253;28;20028;-71
2023/01/28 06:07:18;;;;;;;13.75;7.20;;;;;;;-1.98;98.60;100883.66;5019994;28;20083;-71
2023/01/28 06:09:44;;;;;;;16.75;6.63;;;;;;;-1.94;99.33;100884.38;5024421;28;20029;-71
2023/01/28 06:12:09;;;;;;;12.65;7.15;;;;;;;-1.80;99.09;100885.53;5021987;28;20033;-71
2023/01/28 06:14:34;;;;;;;16.60;8.52;;;;;;;-1.60;97.26;100886.53;5019693;28;20069;-71
2023/01/28 06:17:00;;;;;;;17.02;7.78;;;;;;;-1.61;96.67;100885.69;5020675;28;20540;-71
2023/01/28 06:19:25;;;;;;;16.92;7.93;;;;;;;-1.62;96.58;100901.06;5029644;28;20057;-71
2023/01/28 06:21:51;;;;;;;18.10;7.07;;;;;;;-1.82;97.86;100892.41;5030897;28;20029;-71
2023/01/28 06:24:16;;;;;;;13.48;6.97;;;;;;;-1.93;98.74;100894.53;5033049;28;20565;-72
2023/01/28 06:26:41;;;;;;;15.18;7.03;;;;;;;-1.97;99.28;100900.63;5029707;28;20365;-72
2023/01/28 06:29:07;;;;;;;16.60;9.27;;;;;;;-1.91;99.74;100900.44;5033428;28;20037;-71
2023/01/28 06:31:32;;;;;;;18.40;8.50;;;;;;;-1.54;97.19;100901.63;5031324;28;20046;-71
2023/01/28 06:33:58;;;;;;;19.30;9.07;;;;;;;-1.43;95.43;100905.44;5030715;28;20029;-71
2023/01/28 06:36:23;;;;;;;19.00;8.27;;;;;;;-1.45;95.83;100917.44;5032751;28;20017;-71
2023/01/28 06:38:49;;;;;;;18.23;7.97;;;;;;;-1.08;93.55;100919.44;5032077;28;20033;-71
2023/01/28 06:41:14;;;;;;;20.35;8.95;;;;;;;-0.86;91.23;100921.13;5033354;28;20029;-71
2023/01/28 06:43:39;;;;;;;19.02;8.48;;;;;;;-0.67;89.68;100916.94;5033147;28;20124;-71
2023/01/28 06:46:05;;;;;;;17.50;8.70;;;;;;;-0.61;89.01;100919.25;5034815;28;20029;-71
2023/01/28 06:48:31;;;;;;;18.67;9.25;;;;;;;-0.53;88.33;100914.66;5025710;28;20062;-72
2023/01/28 06:50:56;;;;;;;19.67;9.45;;;;;;;-0.58;88.34;100919.13;5031810;28;20033;-71
2023/01/28 06:53:22;;;;;;;18.42;9.02;;;;;;;-0.56;88.34;100917.34;5030182;28;20014;-71
2023/01/28 06:55:47;;;;;;;20.73;9.98;;;;;;;-0.56;88.29;100919.91;5034192;28;20115;-71
2023/01/28 06:58:13;;;;;;;17.50;9.75;;;;;;;-0.53;88.40;100921.50;5024058;28;20057;-71
2023/01/28 07:00:38;;;;;;;18.20;9.25;;;;;;;-0.60;88.51;100920.91;5032690;28;20205;-71
2023/01/28 07:03:04;;;;;;;20.70;9.85;;;;;;;-0.69;89.40;100914.44;5037483;28;20099;-71
2023/01/28 07:05:30;;;;;;;15.85;8.18;;;;;;;-0.65;89.09;100922.00;5033731;28;20045;-71
2023/01/28 07:07:55;;;;;;;15.68;7.78;;;;;;;-0.48;87.92;100925.53;5027547;28;20731;-71
2023/01/28 07:10:21;;;;;;;14.90;6.80;;;;;;;-0.27;86.14;100920.41;5036546;28;20028;-72
2023/01/28 07:12:46;;;;;;;13.65;6.60;;;;;;;-0.14;85.32;100924.13;5032645;28;20121;-71
2023/01/28 07:15:13;;;;;;;14.32;7.60;;;;;;;-0.03;84.57;100916.81;5031930;28;20037;-71
2023/01/28 07:17:42;;;;;;;11.00;6.30;;;;;;;0.08;83.91;100924.00;5032754;28;20123;-71
2023/01/28 07:20:12;;;;;;;12.93;7.00;;;;;;;0.19;82.93;100925.22;5025494;28;20111;-71
2023/01/28 07:22:40;;;;;;;11.55;6.53;;;;;;;0.26;82.86;100936.03;5032877;28;20053;-71
2023/01/28 07:25:07;;;;;;;13.40;7.45;;;;;;;0.30;82.65;100932.44;5031178;28;20036;-70
2023/01/28 07:27:32;;;;;;;13.82;7.22;;;;;;;0.32;82.07;100931.47;5030762;28;20033;-70
2023/01/28 07:29:58;;;;;;;15.15;7.10;;;;;;;0.32;81.87;100936.59;5029635;28;20365;-72
2023/01/28 07:32:25;;;;;;;16.80;7.63;;;;;;;0.39;81.86;100941.44;5027381;28;20396;-71
2023/01/28 07:34:51;;;;;;;11.90;7.22;;;;;;;0.44;81.65;100940.34;5024344;28;20064;-71
2023/01/28 07:37:16;;;;;;;16.48;7.25;;;;;;;0.47;81.66;100945.34;5022507;28;20065;-71
2023/01/28 07:39:41;;;;;;;13.75;7.32;;;;;;;0.53;80.73;100944.22;5022987;28;20170;-71
2023/01/28 07:42:07;;;;;;;15.13;7.72;;;;;;;0.58;80.52;100952.53;5021755;28;20473;-71
2023/01/28 07:44:34;;;;;;;15.75;7.85;;;;;;;0.56;81.28;100949.19;5022293;28;20064;-70
2023/01/28 07:47:00;;;;;;;15.02;6.80;;;;;;;0.50;81.30;100958.00;5022455;28;20029;-71
2023/01/28 07:49:25;;;;;;;15.02;8.10;;;;;;;0.58;80.21;100957.66;5022590;28;20095;-70
2023/01/28 07:51:51;;;;;;;14.95;6.45;;;;;;;0.69;79.08;100958.00;5022436;28;20033;-70
2023/01/28 07:54:16;;;;;;;39.42;9.68;;;;;;;0.75;78.80;100970.56;5024040;28;20503;-70
2023/01/28 07:56:42;;;;;;;21.10;7.88;;;;;;;0.77;78.59;100958.50;5023547;28;20135;-70
2023/01/28 07:59:07;;;;;;;17.58;7.45;;;;;;;0.81;78.76;100959.19;5022076;28;20452;-70
2023/01/28 08:01:33;;;;;;;16.33;7.18;;;;;;;0.91;78.72;100963.84;5024736;28;20120;-69
2023/01/28 08:03:58;;;;;;;11.68;7.28;;;;;;;0.92;78.21;100956.97;5024106;28;20516;-71
2023/01/28 08:06:24;;;;;;;13.23;7.32;;;;;;;0.98;78.03;100962.63;5021221;28;20042;-71
2023/01/28 08:08:49;;;;;;;15.88;8.23;;;;;;;1.02;78.26;100957.34;5023015;28;20091;-71
2023/01/28 08:11:15;;;;;;;20.45;9.30;;;;;;;1.02;77.88;100967.59;5023711;28;20067;-71
2023/01/28 08:13:40;;;;;;;17.80;8.65;;;;;;;1.00;77.79;100965.09;5024316;28;20115;-71
2023/01/28 08:16:06;;;;;;;14.23;7.63;;;;;;;1.09;77.55;100958.72;5022375;28;20037;-72
2023/01/28 08:18:31;;;;;;;21.75;7.30;;;;;;;1.21;77.54;100960.72;5024094;28;20034;-71
2023/01/28 08:20:58;;;;;;;14.40;7.00;;;;;;;1.21;77.22;100964.13;5023059;28;20065;-71
2023/01/28 08:23:29;;;;;;;18.83;8.02;;;;;;;1.20;77.22;100964.19;5022925;28;20107;-72
2023/01/28 08:25:57;;;;;;;14.68;6.50;;;;;;;1.26;76.87;100969.03;5023076;28;20435;-71
2023/01/28 08:28:23;;;;;;;15.23;6.90;;;;;;;1.33;76.80;100966.09;5021988;28;20048;-71
2023/01/28 08:30:48;;;;;;;11.85;6.55;;;;;;;1.45;76.10;100956.94;5025139;28;20045;-72
2023/01/28 08:33:15;;;;;;;13.65;7.00;;;;;;;1.58;75.64;100958.03;5023450;28;20025;-71
2023/01/28 08:35:41;;;;;;;12.43;6.93;;;;;;;1.70;75.44;100960.91;5024689;28;20036;-71
2023/01/28 08:38:07;;;;;;;13.70;7.15;;;;;;;1.82;75.66;100960.28;5022995;28;20029;-72
2023/01/28 08:40:33;;;;;;;14.27;7.53;;;;;;;1.88;74.97;100958.25;5022041;28;20096;-71
2023/01/28 08:42:59;;;;;;;14.13;8.07;;;;;;;1.96;74.44;100963.81;5021853;28;20574;-71
2023/01/28 08:45:26;;;;;;;15.00;7.70;;;;;;;2.04;74.63;100971.13;5020845;28;20081;-71
2023/01/28 08:47:59;;;;;;;23.48;8.60;;;;;;;2.12;74.23;100963.88;5023035;28;20480;-72
2023/01/28 08:50:29;;;;;;;14.85;8.05;;;;;;;2.23;73.57;100971.03;5021820;28;20033;-72
2023/01/28 08:53:02;;;;;;;15.60;8.25;;;;;;;2.30;73.17;100956.97;5021035;28;20037;-70
2023/01/28 08:55:28;;;;;;;15.88;8.13;;;;;;;2.38;72.36;100964.25;5022211;28;20071;-71
2023/01/28 08:57:54;;;;;;;18.98;9.02;;;;;;;2.47;72.89;100971.47;5022828;28;20065;-71
2023/01/28 09:00:20;;;;;;;16.20;7.60;;;;;;;2.54;72.21;100972.81;5023384;28;21094;-72
2023/01/28 09:02:46;;;;;;;55.88;13.00;;;;;;;2.63;72.12;100969.78;5020228;28;20033;-72
2023/01/28 09:05:12;;;;;;;20.95;8.35;;;;;;;2.72;71.39;100969.28;5021847;28;20022;-72
2023/01/28 09:07:38;;;;;;;11.32;6.53;;;;;;;2.82;71.29;100961.91;5021444;28;20120;-71
2023/01/28 09:10:04;;;;;;;12.00;7.22;;;;;;;2.83;71.06;100964.41;5022019;28;20108;-72
2023/01/28 09:12:30;;;;;;;35.53;10.23;;;;;;;3.00;70.75;100959.16;5020264;28;20029;-71
2023/01/28 09:14:56;;;;;;;13.90;6.93;;;;;;;3.15;70.05;100954.06;5023379;28;20041;-71
2023/01/28 09:17:22;;;;;;;16.48;8.10;;;;;;;3.18;69.86;100964.19;5022842;28;20083;-71
2023/01/28 09:19:48;;;;;;;15.85;7.00;;;;;;;3.27;69.17;100967.09;5022396;28;20041;-71
2023/01/28 09:22:13;;;;;;;25.85;7.88;;;;;;;3.33;68.76;100971.03;5021880;28;20037;-71
2023/01/28 09:24:39;;;;;;;15.25;6.60;;;;;;;3.43;68.00;100966.22;5021353;28;20064;-71
2023/01/28 09:27:04;;;;;;;36.30;10.25;;;;;;;3.52;67.75;100969.09;5023562;28;20111;-71
2023/01/28 09:29:29;;;;;;;21.38;8.10;;;;;;;3.50;68.23;100970.94;5022342;28;20041;-72
2023/01/28 09:31:55;;;;;;;15.95;6.90;;;;;;;3.52;67.71;100968.28;5021329;28;20062;-72
2023/01/28 09:34:20;;;;;;;19.30;8.50;;;;;;;3.54;68.35;100976.75;5020260;28;20075;-72
2023/01/28 09:36:46;;;;;;;13.20;7.00;;;;;;;3.54;67.55;100975.00;5019959;28;20116;-71
2023/01/28 09:39:11;;;;;;;17.20;7.53;;;;;;;3.55;68.34;100971.50;5021871;28;20033;-72
2023/01/28 09:42:08;;;;;;;13.10;7.25;;;;;;;3.58;66.87;100979.06;5019359;28;20056;-71
2023/01/28 09:44:36;;;;;;;;;;;;;;;3.62;65.54;100977.16;5023112;28;20464;-72
2023/01/28 09:47:09;;;;;;;12.68;7.55;;;;;;;3.72;67.43;100977.44;5022680;28;20376;-71
2023/01/28 09:49:44;;;;;;;16.45;9.85;;;;;;;3.90;67.17;100973.78;5023848;28;20381;-72
2023/01/28 09:52:16;;;;;;;12.40;7.10;;;;;;;3.99;65.96;100976.66;5017862;28;20109;-71
2023/01/28 09:54:45;;;;;;;11.85;7.10;;;;;;;4.14;66.23;100980.09;5019730;28;20523;-71
2023/01/28 09:57:39;;;;;;;13.45;6.93;;;;;;;4.22;64.05;100977.91;5020649;28;20045;-70
2023/01/28 10:00:21;;;;;;;11.95;6.93;;;;;;;4.25;64.83;100984.63;5020536;28;20045;-72
2023/01/28 10:03:01;;;;;;;11.95;7.07;;;;;;;4.37;65.48;100980.44;5018520;28;20175;-72
2023/01/28 10:05:53;;;;;;;12.63;6.78;;;;;;;4.47;64.76;100968.66;5017641;28;20435;-72
2023/01/28 10:08:40;;;;;;;11.35;7.07;;;;;;;4.57;64.43;100982.66;5026313;28;20044;-71
2023/01/28 10:11:30;;;;;;;11.98;6.60;;;;;;;4.53;63.96;100970.88;5017684;28;20080;-71
2023/01/28 10:14:22;;;;;;;43.70;10.90;;;;;;;4.56;64.74;100970.69;5019890;28;20038;-71
2023/01/28 10:16:59;;;;;;;24.42;7.63;;;;;;;4.48;63.29;100973.72;5022667;28;20032;-71
2023/01/28 10:19:32;;;;;;;12.95;6.93;;;;;;;4.43;64.33;100978.34;5021850;28;20041;-72
2023/01/28 10:22:06;;;;;;;14.00;5.95;;;;;;;4.44;64.65;100969.69;5020771;28;20033;-71
2023/01/28 10:24:40;;;;;;;13.90;6.15;;;;;;;4.47;64.13;100973.81;5019433;28;20440;-72
2023/01/28 10:27:15;;;;;;;13.10;6.35;;;;;;;4.54;63.90;100972.53;5020659;28;20072;-71
2023/01/28 10:29:44;;;;;;;9.55;5.43;;;;;;;4.62;64.51;100965.16;5020613;28;20685;-72
2023/01/28 10:32:25;;;;;;;10.60;5.88;;;;;;;4.72;63.13;100971.41;5023194;28;20034;-72
2023/01/28 10:34:51;;;;;;;12.20;6.88;;;;;;;4.74;63.78;100979.03;5020132;28;20045;-71
2023/01/28 10:37:17;;;;;;;13.23;6.63;;;;;;;4.79;63.97;100972.66;5026183;28;20029;-71
2023/01/28 10:39:43;;;;;;;12.02;6.10;;;;;;;4.76;63.40;100972.03;5020984;28;20028;-71
2023/01/28 10:42:34;;;;;;;10.25;5.88;;;;;;;4.67;61.86;100973.44;5021288;28;20033;-72
2023/01/28 10:45:22;;;;;;;12.07;6.00;;;;;;;4.74;62.46;100973.88;5024033;28;20100;-69
2023/01/28 10:47:58;;;;;;;11.60;6.35;;;;;;;4.86;63.43;100968.78;5023338;28;20033;-70
2023/01/28 10:50:27;;;;;;;11.02;7.15;;;;;;;4.97;63.79;100968.13;5024460;28;20509;-69
2023/01/28 10:52:52;;;;;;;13.07;7.10;;;;;;;4.97;63.07;100975.88;5025265;28;20029;-69
2023/01/28 10:55:18;;;;;;;12.55;5.78;;;;;;;4.95;63.02;100973.38;5024325;28;20040;-70
2023/01/28 10:57:44;;;;;;;15.98;7.38;;;;;;;4.89;62.82;100965.19;5021054;28;20489;-73
2023/01/28 11:00:19;;;;;;;10.93;5.90;;;;;;;4.77;61.93;100971.09;5024626;28;20041;-73
2023/01/28 11:02:47;;;;;;;10.20;5.85;;;;;;;4.73;63.22;100973.03;5025216;28;20021;-72
2023/01/28 11:05:30;;;;;;;13.70;6.40;;;;;;;4.73;62.82;100969.63;5024071;28;20134;-73
2023/01/28 11:08:13;;;;;;;10.13;5.65;;;;;;;4.81;61.81;100973.41;5019886;28;20037;-72
2023/01/28 11:10:39;;;;;;;10.30;5.30;;;;;;;4.92;63.04;100968.41;5023381;28;20104;-73
2023/01/28 11:13:13;;;;;;;11.15;5.53;;;;;;;4.87;63.07;100967.84;5023106;28;20388;-73
2023/01/28 11:15:47;;;;;;;7.97;5.35;;;;;;;4.94;63.17;100968.31;5020583;28;20021;-73
2023/01/28 11:18:46;;;;;;;12.00;6.20;;;;;;;5.10;63.44;100965.59;5023795;28;20087;-73
2023/01/28 11:21:23;;;;;;;11.73;6.15;;;;;;;5.16;63.41;100965.22;5021630;28;20810;-73
2023/01/28 11:23:54;;;;;;;11.25;6.40;;;;;;;5.07;63.55;100958.03;5021844;28;20033;-72
2023/01/28 11:26:28;;;;;;;10.13;6.13;;;;;;;5.10;63.75;100960.44;5019200;28;20404;-72
2023/01/28 11:28:54;;;;;;;11.80;7.10;;;;;;;5.18;64.48;100963.34;5019967;28;20061;-72
2023/01/28 11:31:22;;;;;;;12.45;7.53;;;;;;;5.31;63.78;100964.22;5021638;28;20576;-71
2023/01/28 11:33:59;;;;;;;10.40;6.50;;;;;;;5.44;63.67;100957.31;5018748;28;20033;-71
2023/01/28 11:36:26;;;;;;;12.60;6.70;;;;;;;5.47;62.87;100954.53;5021837;28;20152;-72
2023/01/28 11:39:00;;;;;;;10.10;6.03;;;;;;;5.31;61.61;100956.44;5016940;28;20504;-70
2023/01/28 11:41:29;;;;;;;11.13;5.88;;;;;;;5.21;62.10;100951.03;5018141;28;20110;-71
2023/01/28 11:43:56;;;;;;;9.95;5.40;;;;;;;5.19;61.72;100945.19;5018736;28;20425;-71
2023/01/28 11:46:22;;;;;;;9.60;5.80;;;;;;;5.22;61.82;100947.53;5019116;28;20388;-71
2023/01/28 11:49:24;;;;;;;10.75;5.93;;;;;;;5.24;60.42;100952.59;5021058;28;20036;-70
2023/01/28 11:52:08;;;;;;;11.27;6.57;;;;;;;5.29;61.47;100948.81;5020047;28;20060;-71
2023/01/28 11:54:55;;;;;;;11.57;6.43;;;;;;;5.22;60.95;100949.28;5021024;28;20074;-71
2023/01/28 11:57:37;;;;;;;10.95;6.18;;;;;;;5.14;61.47;100951.56;5018998;28;20345;-71
2023/01/28 12:00:20;;;;;;;11.60;6.90;;;;;;;5.00;61.93;100948.09;5027459;28;20038;-71
2023/01/28 12:02:52;;;;;;;12.95;7.68;;;;;;;4.95;62.24;100950.13;5024282;28;20112;-71